createdAt,value
2023-05-23T00:01:14.651Z,12.57
2023-05-23T00:04:18.859Z,11.00
2023-05-23T00:07:20.598Z,11.65
2023-05-23T00:10:22.956Z,10.90
2023-05-23T00:13:24.736Z,10.43
2023-05-23T00:16:26.791Z,9.65
2023-05-23T00:19:28.789Z,9.68
2023-05-23T00:22:30.752Z,8.75
2023-05-23T00:25:34.109Z,8.30
2023-05-23T00:28:37.868Z,8.63
2023-05-23T00:31:39.504Z,7.57
2023-05-23T00:34:41.178Z,6.70
2023-05-23T00:37:43.825Z,7.50
2023-05-23T00:40:45.682Z,7.57
2023-05-23T00:43:47.366Z,7.72
2023-05-23T00:46:54.980Z,7.22
2023-05-23T00:49:56.829Z,7.75
2023-05-23T00:53:04.272Z,6.97
2023-05-23T00:56:06.265Z,6.68
2023-05-23T00:59:12.948Z,6.78
2023-05-23T01:02:14.739Z,7.22
2023-05-23T01:05:19.931Z,7.10
2023-05-23T01:08:24.898Z,5.80
2023-05-23T01:11:35.968Z,6.47
2023-05-23T01:14:51.565Z,6.80
2023-05-23T01:18:01.629Z,6.40
2023-05-23T01:21:08.946Z,7.03
2023-05-23T01:24:36.369Z,6.15
2023-05-23T01:27:54.174Z,6.50
2023-05-23T01:30:58.637Z,6.28
2023-05-23T01:34:01.884Z,7.25
2023-05-23T01:37:09.794Z,6.72
2023-05-23T01:40:11.993Z,7.07
2023-05-23T01:43:16.806Z,6.25
2023-05-23T01:46:24.143Z,6.57
2023-05-23T01:49:27.514Z,6.82
2023-05-23T01:52:29.348Z,7.15
2023-05-23T01:55:31.119Z,9.07
2023-05-23T01:58:32.794Z,8.05
2023-05-23T02:01:34.862Z,7.65
2023-05-23T02:04:36.563Z,7.40
2023-05-23T02:07:38.522Z,7.90
2023-05-23T02:10:40.361Z,8.13
2023-05-23T02:13:41.966Z,7.97
2023-05-23T02:16:43.578Z,7.53
2023-05-23T02:19:45.226Z,7.80
2023-05-23T02:22:46.874Z,9.27
2023-05-23T02:25:48.543Z,9.02
2023-05-23T02:28:50.188Z,9.70
2023-05-23T02:31:51.789Z,9.45
2023-05-23T02:34:57.403Z,10.07
2023-05-23T02:37:59.836Z,8.77
2023-05-23T02:41:01.486Z,8.68
2023-05-23T02:44:03.454Z,9.15
2023-05-23T02:47:05.501Z,7.90
2023-05-23T02:50:07.772Z,8.98
2023-05-23T02:53:09.665Z,8.95
2023-05-23T02:56:11.588Z,7.93
2023-05-23T02:59:13.653Z,7.60
2023-05-23T03:02:15.679Z,7.57
2023-05-23T03:05:17.453Z,7.05
2023-05-23T03:08:19.448Z,7.25
2023-05-23T03:11:22.730Z,7.47
2023-05-23T03:14:24.514Z,7.00
2023-05-23T03:17:26.403Z,6.88
2023-05-23T03:20:28.203Z,7.15
2023-05-23T03:23:30.163Z,6.85
2023-05-23T03:26:32.465Z,7.57
2023-05-23T03:29:34.207Z,7.72
2023-05-23T03:32:36.191Z,7.43
2023-05-23T03:35:38.060Z,7.60
2023-05-23T03:38:39.880Z,8.27
2023-05-23T03:41:41.601Z,7.93
2023-05-23T03:44:44.137Z,8.65
2023-05-23T03:47:45.938Z,8.70
2023-05-23T03:50:47.797Z,8.73
2023-05-23T03:53:49.527Z,8.60
2023-05-23T03:56:51.268Z,7.90
2023-05-23T03:59:53.017Z,9.23
2023-05-23T04:02:54.874Z,9.25
2023-05-23T04:05:57.861Z,9.65
2023-05-23T04:08:59.624Z,10.23
2023-05-23T04:12:01.359Z,9.95
2023-05-23T04:15:03.949Z,10.40
2023-05-23T04:18:07.452Z,10.32
2023-05-23T04:21:09.347Z,10.35
2023-05-23T04:24:11.573Z,9.38
2023-05-23T04:27:13.685Z,10.18
2023-05-23T04:30:16.827Z,10.15
2023-05-23T04:33:18.429Z,10.05
2023-05-23T04:36:19.998Z,9.32
2023-05-23T04:39:21.693Z,10.10
2023-05-23T04:42:24.305Z,11.15
2023-05-23T04:45:26.590Z,10.18
2023-05-23T04:48:28.198Z,10.98
2023-05-23T04:51:29.866Z,10.85
2023-05-23T04:54:31.525Z,10.48
2023-05-23T04:57:35.740Z,10.80
2023-05-23T05:00:37.430Z,10.43
2023-05-23T05:03:39.270Z,10.38
2023-05-23T05:06:45.191Z,9.73
2023-05-23T05:09:46.787Z,11.05
2023-05-23T05:12:49.537Z,11.93
2023-05-23T05:15:52.747Z,11.93
2023-05-23T05:18:54.563Z,12.48
2023-05-23T05:21:57.668Z,12.25
2023-05-23T05:24:59.268Z,12.88
2023-05-23T05:28:06.084Z,13.35
2023-05-23T05:31:07.948Z,12.63
2023-05-23T05:34:09.535Z,14.48
2023-05-23T05:37:14.035Z,13.40
2023-05-23T05:40:15.695Z,14.07
2023-05-23T05:43:17.328Z,13.82
2023-05-23T05:46:18.925Z,13.70
2023-05-23T05:49:20.667Z,12.65
2023-05-23T05:52:22.484Z,13.43
2023-05-23T05:55:24.161Z,14.50
2023-05-23T05:58:25.853Z,13.57
2023-05-23T06:01:27.434Z,12.60
2023-05-23T06:04:29.089Z,13.35
2023-05-23T06:07:30.711Z,12.93
2023-05-23T06:10:32.305Z,12.25
2023-05-23T06:13:33.976Z,11.43
2023-05-23T06:16:35.668Z,12.55
2023-05-23T06:19:38.585Z,11.18
2023-05-23T06:22:40.309Z,11.30
2023-05-23T06:25:42.054Z,10.75
2023-05-23T06:28:43.648Z,10.68
2023-05-23T06:31:45.413Z,11.60
2023-05-23T06:34:47.054Z,11.27
2023-05-23T06:37:48.857Z,10.55
2023-05-23T06:40:50.405Z,10.98
2023-05-23T06:43:52.032Z,11.00
2023-05-23T06:46:58.676Z,10.73
2023-05-23T06:50:00.363Z,10.68
2023-05-23T06:53:01.913Z,10.13
2023-05-23T06:56:03.566Z,10.95
2023-05-23T06:59:05.150Z,10.85
2023-05-23T07:02:06.791Z,10.13
2023-05-23T07:05:08.672Z,10.98
2023-05-23T07:08:11.165Z,10.48
2023-05-23T07:11:13.217Z,10.85
2023-05-23T07:14:15.712Z,10.50
2023-05-23T07:17:17.453Z,10.00
2023-05-23T07:20:19.028Z,10.73
2023-05-23T07:23:22.345Z,9.88
2023-05-23T07:26:24.092Z,9.02
2023-05-23T07:29:25.770Z,10.50
2023-05-23T07:32:27.456Z,9.75
2023-05-23T07:35:29.172Z,10.45
2023-05-23T07:38:30.956Z,8.93
2023-05-23T07:41:32.604Z,9.40
2023-05-23T07:44:34.181Z,9.55
2023-05-23T07:47:35.788Z,10.00
2023-05-23T07:50:37.429Z,9.85
2023-05-23T07:53:40.024Z,10.10
2023-05-23T07:56:43.371Z,11.15
2023-05-23T07:59:44.977Z,12.02
2023-05-23T08:02:46.596Z,11.45
2023-05-23T08:05:48.266Z,11.88
2023-05-23T08:08:50.983Z,10.85
2023-05-23T08:11:52.700Z,10.60
2023-05-23T08:14:54.322Z,9.98
2023-05-23T08:17:57.459Z,10.70
2023-05-23T08:20:59.205Z,10.48
2023-05-23T08:24:00.888Z,10.85
2023-05-23T08:27:02.481Z,10.65
2023-05-23T08:30:04.990Z,9.27
2023-05-23T08:33:07.115Z,9.85
2023-05-23T08:36:08.887Z,10.18
2023-05-23T08:39:11.884Z,11.18
2023-05-23T08:42:15.789Z,9.57
2023-05-23T08:45:18.365Z,10.25
2023-05-23T08:48:21.084Z,10.32
2023-05-23T08:51:25.736Z,10.75
2023-05-23T08:54:29.395Z,10.82
2023-05-23T08:57:31.050Z,11.23
2023-05-23T09:00:34.893Z,11.05
2023-05-23T09:03:37.685Z,10.73
2023-05-23T09:06:39.272Z,11.13
2023-05-23T09:09:41.631Z,11.60
2023-05-23T09:12:43.545Z,9.65
2023-05-23T09:16:00.049Z,10.05
2023-05-23T09:19:11.341Z,10.27
2023-05-23T09:22:13.261Z,9.30
2023-05-23T09:25:15.572Z,9.82
2023-05-23T09:28:17.738Z,10.52
2023-05-23T09:31:19.652Z,8.68
2023-05-23T09:34:21.244Z,8.65
2023-05-23T09:37:29.425Z,8.38
2023-05-23T09:40:32.495Z,9.00
2023-05-23T09:43:34.442Z,8.95
2023-05-23T09:46:38.274Z,8.85
2023-05-23T09:49:41.238Z,9.75
2023-05-23T09:52:42.850Z,9.20
2023-05-23T09:55:44.607Z,9.73
2023-05-23T09:58:50.063Z,10.48
2023-05-23T10:01:53.596Z,12.20
2023-05-23T10:04:56.629Z,11.32
2023-05-23T10:08:01.623Z,12.35
2023-05-23T10:11:16.586Z,10.90
2023-05-23T10:14:18.751Z,11.07
2023-05-23T10:17:30.924Z,11.43
2023-05-23T10:20:33.458Z,11.60
2023-05-23T10:23:37.207Z,9.93
2023-05-23T10:26:38.857Z,10.98
2023-05-23T10:29:40.530Z,10.23
2023-05-23T10:32:43.109Z,10.32
2023-05-23T10:36:10.676Z,9.05
2023-05-23T10:39:25.413Z,9.80
2023-05-23T10:42:36.081Z,8.80
2023-05-23T10:48:46.980Z,8.63
2023-05-23T10:51:52.032Z,8.43
2023-05-23T10:54:56.269Z,8.10
2023-05-23T10:58:31.277Z,8.50
2023-05-23T11:01:39.112Z,7.57
2023-05-23T11:04:41.288Z,8.18
2023-05-23T11:07:43.008Z,7.75
2023-05-23T11:10:53.623Z,8.52
2023-05-23T11:16:58.997Z,8.90
2023-05-23T11:20:07.693Z,8.25
2023-05-23T11:23:09.479Z,6.93
2023-05-23T11:26:30.975Z,6.75
2023-05-23T11:29:32.672Z,7.15
2023-05-23T11:32:34.976Z,6.70
2023-05-23T11:35:37.293Z,5.82
2023-05-23T11:38:38.952Z,5.72
2023-05-23T11:41:42.827Z,5.93
2023-05-23T11:44:45.332Z,5.43
2023-05-23T11:47:47.257Z,5.47
2023-05-23T11:50:54.352Z,5.90
2023-05-23T11:54:04.731Z,5.70
2023-05-23T11:57:06.352Z,6.63
2023-05-23T12:00:08.819Z,4.93
2023-05-23T12:03:12.018Z,5.18
2023-05-23T12:06:19.040Z,5.05
2023-05-23T12:09:20.677Z,4.47
2023-05-23T12:12:22.458Z,5.35
2023-05-23T12:15:28.139Z,5.32
2023-05-23T12:18:32.290Z,4.47
2023-05-23T12:21:48.021Z,5.03
2023-05-23T12:24:52.756Z,6.00
2023-05-23T12:27:56.173Z,5.25
2023-05-23T12:30:57.787Z,5.78
2023-05-23T12:33:59.586Z,5.65
2023-05-23T12:40:16.860Z,5.00
2023-05-23T12:43:18.742Z,5.60
2023-05-23T12:46:25.317Z,5.82
2023-05-23T12:49:27.018Z,5.63
2023-05-23T12:52:28.630Z,4.80
2023-05-23T12:55:30.300Z,5.18
2023-05-23T12:58:32.822Z,5.70
2023-05-23T13:01:34.982Z,5.03
2023-05-23T13:04:36.720Z,5.15
2023-05-23T13:07:38.332Z,5.80
2023-05-23T13:10:40.200Z,6.03
2023-05-23T13:13:41.912Z,5.07
2023-05-23T13:16:44.994Z,5.28
2023-05-23T13:19:46.807Z,5.20
2023-05-23T13:22:49.136Z,5.22
2023-05-23T13:25:51.165Z,5.53
2023-05-23T13:28:52.884Z,4.75
2023-05-23T13:31:54.626Z,5.13
2023-05-23T13:34:56.229Z,4.47
2023-05-23T13:37:57.886Z,4.65
2023-05-23T13:40:59.526Z,5.15
2023-05-23T13:44:01.138Z,5.25
2023-05-23T13:47:15.488Z,4.63
2023-05-23T13:50:18.047Z,4.90
2023-05-23T13:53:21.410Z,5.25
2023-05-23T13:56:24.382Z,4.85
2023-05-23T13:59:26.718Z,4.85
2023-05-23T14:02:28.539Z,5.72
2023-05-23T14:05:30.131Z,4.70
2023-05-23T14:08:31.751Z,6.38
2023-05-23T14:11:33.444Z,4.60
2023-05-23T14:14:35.025Z,4.72
2023-05-23T14:17:36.750Z,6.57
2023-05-23T14:20:38.521Z,4.90
2023-05-23T14:23:40.139Z,4.53
2023-05-23T14:26:41.921Z,4.88
2023-05-23T14:29:46.528Z,5.03
2023-05-23T14:32:48.326Z,5.55
2023-05-23T14:35:51.534Z,4.45
2023-05-23T14:38:53.117Z,5.40
2023-05-23T14:41:55.332Z,4.47
2023-05-23T14:44:56.991Z,4.07
2023-05-23T14:47:58.730Z,5.00
2023-05-23T14:51:01.812Z,4.82
2023-05-23T14:54:03.533Z,4.53
2023-05-23T14:57:05.324Z,4.50
2023-05-23T15:00:09.691Z,4.60
2023-05-23T15:03:11.453Z,4.95
2023-05-23T15:06:13.175Z,5.10
2023-05-23T15:09:14.943Z,4.18
2023-05-23T15:12:16.561Z,4.35
2023-05-23T15:15:22.841Z,4.38
2023-05-23T15:18:39.011Z,5.72
2023-05-23T15:21:50.387Z,4.78
2023-05-23T15:24:52.950Z,4.25
2023-05-23T15:27:54.584Z,4.70
2023-05-23T15:30:57.085Z,4.78
2023-05-23T15:33:58.683Z,4.82
2023-05-23T15:37:00.574Z,4.57
2023-05-23T15:40:02.539Z,3.90
2023-05-23T15:43:04.324Z,3.78
2023-05-23T15:46:06.188Z,4.40
2023-05-23T15:49:21.604Z,4.70
2023-05-23T15:52:26.463Z,4.20
2023-05-23T15:55:28.173Z,4.40
2023-05-23T15:58:29.831Z,4.15
2023-05-23T16:01:32.948Z,3.88
2023-05-23T16:04:36.138Z,4.07
2023-05-23T16:07:37.761Z,3.95
2023-05-23T16:10:39.461Z,4.20
2023-05-23T16:13:41.090Z,4.15
2023-05-23T16:16:42.922Z,3.80
2023-05-23T16:19:44.659Z,4.72
2023-05-23T16:22:46.372Z,4.38
2023-05-23T16:25:48.356Z,3.70
2023-05-23T16:28:50.684Z,3.72
2023-05-23T16:31:52.344Z,3.83
2023-05-23T16:34:54.775Z,3.85
2023-05-23T16:37:56.470Z,4.25
2023-05-23T16:40:58.152Z,3.80
2023-05-23T16:43:59.782Z,4.13
2023-05-23T16:47:01.714Z,4.35
2023-05-23T16:50:04.911Z,4.22
2023-05-23T16:53:06.546Z,4.60
2023-05-23T16:56:08.128Z,4.25
2023-05-23T16:59:09.748Z,4.18
2023-05-23T17:02:14.626Z,4.45
2023-05-23T17:05:16.275Z,5.05
2023-05-23T17:08:17.875Z,4.55
2023-05-23T17:11:19.589Z,3.92
2023-05-23T17:14:21.505Z,4.72
2023-05-23T17:17:23.160Z,4.97
2023-05-23T17:20:26.641Z,4.80
2023-05-23T17:23:28.250Z,3.72
2023-05-23T17:26:29.876Z,4.50
2023-05-23T17:29:31.660Z,4.43
2023-05-23T17:32:34.244Z,4.70
2023-05-23T17:35:35.939Z,4.07
2023-05-23T17:38:38.551Z,3.72
2023-05-23T17:41:40.190Z,4.30
2023-05-23T17:44:42.007Z,4.28
2023-05-23T17:47:43.666Z,4.63
2023-05-23T17:50:45.775Z,5.40
2023-05-23T17:53:51.433Z,4.10
2023-05-23T17:56:53.841Z,3.90
2023-05-23T17:59:55.479Z,3.45
2023-05-23T18:02:57.203Z,4.95
2023-05-23T18:05:58.861Z,4.20
2023-05-23T18:09:00.479Z,4.43
2023-05-23T18:12:02.234Z,4.68
2023-05-23T18:15:04.179Z,3.70
2023-05-23T18:18:06.698Z,4.80
2023-05-23T18:21:08.649Z,4.13
2023-05-23T18:24:11.675Z,4.20
2023-05-23T18:27:13.342Z,3.70
2023-05-23T18:30:15.085Z,4.57
2023-05-23T18:33:16.841Z,4.20
2023-05-23T18:36:18.636Z,4.00
2023-05-23T18:39:20.260Z,3.70
2023-05-23T18:42:21.856Z,4.35
2023-05-23T18:45:23.451Z,3.90
2023-05-23T18:48:25.044Z,4.53
2023-05-23T18:51:29.352Z,3.90
2023-05-23T18:54:30.929Z,4.25
2023-05-23T18:57:33.221Z,3.92
2023-05-23T19:00:34.866Z,3.67
2023-05-23T19:03:37.153Z,4.57
2023-05-23T19:06:38.923Z,4.38
2023-05-23T19:09:40.616Z,4.28
2023-05-23T19:12:42.228Z,4.10
2023-05-23T19:15:45.756Z,3.95
2023-05-23T19:18:48.302Z,4.32
2023-05-23T19:21:50.969Z,4.28
2023-05-23T19:24:52.585Z,4.13
2023-05-23T19:27:54.197Z,4.30
2023-05-23T19:30:55.858Z,4.13
2023-05-23T19:33:57.460Z,4.30
2023-05-23T19:37:00.480Z,3.85
2023-05-23T19:40:02.136Z,3.67
2023-05-23T19:43:03.766Z,4.03
2023-05-23T19:46:05.865Z,3.90
2023-05-23T19:49:08.864Z,4.03
2023-05-23T19:52:10.470Z,3.45
2023-05-23T19:55:12.186Z,3.78
2023-05-23T19:58:13.908Z,3.88
2023-05-23T20:01:15.649Z,3.75
2023-05-23T20:04:17.278Z,4.07
2023-05-23T20:07:18.977Z,4.15
2023-05-23T20:10:20.752Z,3.70
2023-05-23T20:13:22.339Z,4.07
2023-05-23T20:16:24.011Z,4.20
2023-05-23T20:19:25.823Z,4.07
2023-05-23T20:22:27.733Z,4.13
2023-05-23T20:25:29.355Z,4.38
2023-05-23T20:28:31.074Z,3.72
2023-05-23T20:31:33.142Z,4.35
2023-05-23T20:34:34.807Z,3.88
2023-05-23T20:37:36.390Z,4.72
2023-05-23T20:40:38.158Z,3.67
2023-05-23T20:43:40.244Z,4.13
2023-05-23T20:46:41.903Z,4.22
2023-05-23T20:49:44.216Z,4.78
2023-05-23T20:52:45.814Z,4.28
2023-05-23T20:55:50.588Z,4.03
2023-05-23T20:58:52.181Z,3.67
2023-05-23T21:01:53.859Z,4.30
2023-05-23T21:04:55.811Z,4.20
2023-05-23T21:07:57.381Z,4.05
2023-05-23T21:10:59.047Z,4.50
2023-05-23T21:14:00.870Z,4.32
2023-05-23T21:17:02.590Z,3.92
2023-05-23T21:20:05.460Z,3.95
2023-05-23T21:23:07.035Z,4.78
2023-05-23T21:26:08.684Z,3.83
2023-05-23T21:29:10.466Z,3.63
2023-05-23T21:32:12.205Z,4.55
2023-05-23T21:35:13.784Z,4.50
2023-05-23T21:38:15.458Z,3.88
2023-05-23T21:41:17.105Z,4.53
2023-05-23T21:44:26.169Z,4.18
2023-05-23T21:47:27.884Z,4.05
2023-05-23T21:50:29.619Z,4.40
2023-05-23T21:53:31.414Z,4.78
2023-05-23T21:56:33.038Z,3.80
2023-05-23T21:59:34.604Z,4.05
2023-05-23T22:02:37.229Z,4.05
2023-05-23T22:05:38.892Z,4.40
2023-05-23T22:08:40.494Z,4.30
2023-05-23T22:11:42.432Z,4.90
2023-05-23T22:14:44.297Z,4.88
2023-05-23T22:17:46.663Z,3.90
2023-05-23T22:20:49.188Z,4.75
2023-05-23T22:23:51.949Z,4.25
2023-05-23T22:26:53.554Z,4.80
2023-05-23T22:29:55.150Z,4.15
2023-05-23T22:32:57.630Z,4.47
2023-05-23T22:35:59.261Z,4.47
2023-05-23T22:39:05.282Z,4.57
2023-05-23T22:42:07.018Z,4.72
2023-05-23T22:45:09.635Z,3.78
2023-05-23T22:48:11.732Z,4.47
2023-05-23T22:51:14.625Z,4.22
2023-05-23T22:54:18.510Z,4.20
2023-05-23T22:57:26.348Z,3.70
2023-05-23T23:00:30.418Z,4.32
2023-05-23T23:03:32.112Z,4.10
2023-05-23T23:06:33.959Z,4.38
2023-05-23T23:09:35.604Z,4.35
2023-05-23T23:12:40.309Z,4.50
2023-05-23T23:15:43.060Z,3.67
2023-05-23T23:18:46.969Z,4.15
2023-05-23T23:21:48.867Z,3.50
2023-05-23T23:24:52.764Z,4.55
2023-05-23T23:27:54.348Z,4.40
2023-05-23T23:30:56.052Z,3.85
2023-05-23T23:33:58.937Z,4.00
2023-05-23T23:37:00.631Z,3.60
2023-05-23T23:40:02.551Z,3.70
2023-05-23T23:43:04.193Z,4.75
2023-05-23T23:46:05.895Z,3.97
2023-05-23T23:49:07.578Z,4.05
2023-05-23T23:52:12.304Z,4.30
2023-05-23T23:55:13.993Z,4.65
2023-05-23T23:58:15.943Z,4.20
